Airfield :
LOGIN :

Register | Disclaimer

   EN    FR    IT 

 










Legend :    VFR   Marginal VFR   IFR   Intensive IFR   Very Intensive IFR
Visi :
Ceiling :
>= 8 km
>= 3000ft
5 to 8 km
1000 to 3000 ft
1500m to 5 km
500 to 1000 ft
800 to 1500m
200 to 500 ft
< 800m
< 200 ft
Symbols :   Thunderstorms  Fog  Heavy snow  Heavy precipitations  Wind > 20 kt
SIGMETs :     Misc.  Thunderstorms  Icing  Turbulence  Mountain Waves  Volcanic Ashes






- Airport Elevation : 0 ft


ETEB - Ansbach Army Heliport

CURRENT METAR :
  • 280756Z AUTO 18006KT 9999 BKN022 07/07 A2990 RMK AO2 DZE07RAB07E36DZB36E38 SLP149 P0003 T00700070 $

EXPIRED METARs :
  • 280738Z AUTO 18006KT 9999 SCT024 07/07 A2990 RMK AO2 DZE07RAB07E36DZB36E38 SLP149 $
  • 280656Z AUTO 17008KT 9999 -DZ BKN037 07/07 A2989 RMK AO2 DZB10E21DZB39 SLP145 P0000 T00670066 $
  • 280639Z AUTO 17008KT 9999 -DZ BKN036 OVC050 07/07 A2988 RMK AO2 DZB10E21DZB39 SLP142 $
  • 280621Z AUTO 17007KT 9999 SCT035 BKN050 06/06 A2988 RMK AO2 DZB10E21 SLP144 $
  • 280610Z AUTO 18008KT 9999 -DZ SCT036 BKN050 06/06 A2987 RMK AO2 DZB10 SLP140 $
  • 280556Z AUTO 18007KT 9999 FEW030 SCT040 SCT085 06/06 A2987 RMK AO2 SLP140 60000 T00620061 10064 20057 50005 $
  • 280526Z AUTO 18007KT 9999 SCT022 OVC041 06/06 A2987 RMK AO2 SLP138 $

TAF TAF ETEB
Valid from the 27 at 17:00 until the 28 at 23:00 UTC


271700Z 2717/2823 19009KT 9999 FEW025 SCT060 QNH2986INS
BECMG 2800/2801 20009KT 9999 BKN070 QNH2986INS
BECMG 2803/2804 20009KT 8000 -SHRA BKN010 OVC020 620855 QNH2986INS
TEMPO 2804/2808 BKN009
BECMG 2812/2813 20009KT 9999 NSW BKN015 QNH2992INS
BECMG 2815/2816 22009KT 9999 SCT015 BKN025 OVC040 QNH2995INS
BECMG 2820/2821 20009KT 9999 BKN010 OVC020 QNH2996INS TX12/2814Z TN05/2803Z LAST NO AMDS AFT 2722 NEXT 2809



MET'MAP, your aeronautical weather chart ! - Copyright ORBIFLY December 2007 - Disclaimer

ORBIFLY MET'MAP TEAM :

Programming & Development : Alexandra Zaïnal
Concept & original design : Baudouin d'Aumeries
Assistance for programming : Marc-Olivier Méhu
Technical & hardware support : Manuel Goepfert

Contact : metmap@orbifly.com




SOURCES & CREDITS :

   NOAA